sensor_id;sensor_type;location;lat;lon;timestamp;pressure;altitude;pressure_sealevel;temperature;humidity
61786;BME280;47692;53.714;11.372;2023-03-13T00:01:01;99738.66;;;4.04;100.00
61786;BME280;47692;53.714;11.372;2023-03-13T00:03:27;99734.38;;;4.03;100.00
61786;BME280;47692;53.714;11.372;2023-03-13T00:05:56;99723.19;;;4.02;100.00
61786;BME280;47692;53.714;11.372;2023-03-13T00:08:27;99719.78;;;3.99;100.00
61786;BME280;47692;53.714;11.372;2023-03-13T00:10:53;99723.19;;;4.01;100.00
61786;BME280;47692;53.714;11.372;2023-03-13T00:13:18;99724.91;;;4.02;100.00
61786;BME280;47692;53.714;11.372;2023-03-13T00:15:43;99721.47;;;4.03;100.00
61786;BME280;47692;53.714;11.372;2023-03-13T00:18:09;99723.09;;;4.09;100.00
61786;BME280;47692;53.714;11.372;2023-03-13T00:20:34;99725.66;;;4.10;100.00
61786;BME280;47692;53.714;11.372;2023-03-13T00:22:59;99728.25;;;4.10;100.00
61786;BME280;47692;53.714;11.372;2023-03-13T00:25:25;99717.91;;;4.12;100.00
61786;BME280;47692;53.714;11.372;2023-03-13T00:27:50;99720.41;;;4.16;100.00
61786;BME280;47692;53.714;11.372;2023-03-13T00:30:16;99717.84;;;4.16;100.00
61786;BME280;47692;53.714;11.372;2023-03-13T00:32:43;99713.53;;;4.17;100.00
61786;BME280;47692;53.714;11.372;2023-03-13T00:35:08;99706.59;;;4.20;100.00
61786;BME280;47692;53.714;11.372;2023-03-13T00:37:34;99702.34;;;4.18;100.00
61786;BME280;47692;53.714;11.372;2023-03-13T00:39:59;99703.16;;;4.22;100.00
61786;BME280;47692;53.714;11.372;2023-03-13T00:42:24;99705.69;;;4.25;100.00
61786;BME280;47692;53.714;11.372;2023-03-13T00:44:50;99687.56;;;4.28;100.00
61786;BME280;47692;53.714;11.372;2023-03-13T00:47:15;99686.69;;;4.29;100.00
61786;BME280;47692;53.714;11.372;2023-03-13T00:49:40;99687.50;;;4.31;100.00
61786;BME280;47692;53.714;11.372;2023-03-13T00:52:06;99690.94;;;4.33;100.00
61786;BME280;47692;53.714;11.372;2023-03-13T00:54:31;99682.34;;;4.31;100.00
61786;BME280;47692;53.714;11.372;2023-03-13T00:56:56;99678.03;;;4.33;100.00
61786;BME280;47692;53.714;11.372;2023-03-13T00:59:21;99673.66;;;4.35;100.00
61786;BME280;47692;53.714;11.372;2023-03-13T01:01:47;99665.91;;;4.35;100.00
61786;BME280;47692;53.714;11.372;2023-03-13T01:04:13;99674.53;;;4.35;100.00
61786;BME280;47692;53.714;11.372;2023-03-13T01:06:40;99670.22;;;4.36;100.00
61786;BME280;47692;53.714;11.372;2023-03-13T01:09:09;99670.25;;;4.34;100.00
61786;BME280;47692;53.714;11.372;2023-03-13T01:11:36;99673.66;;;4.38;100.00
61786;BME280;47692;53.714;11.372;2023-03-13T01:14:04;99673.66;;;4.38;100.00
61786;BME280;47692;53.714;11.372;2023-03-13T01:16:31;99669.38;;;4.35;100.00
61786;BME280;47692;53.714;11.372;2023-03-13T01:19:02;99653.88;;;4.35;100.00
61786;BME280;47692;53.714;11.372;2023-03-13T01:21:28;99654.72;;;4.36;100.00
61786;BME280;47692;53.714;11.372;2023-03-13T01:23:54;99653.00;;;4.35;100.00
61786;BME280;47692;53.714;11.372;2023-03-13T01:26:20;99642.66;;;4.35;100.00
61786;BME280;47692;53.714;11.372;2023-03-13T01:28:46;99646.09;;;4.37;100.00
61786;BME280;47692;53.714;11.372;2023-03-13T01:33:43;99634.06;;;4.34;100.00
61786;BME280;47692;53.714;11.372;2023-03-13T01:36:09;99628.94;;;4.33;100.00
61786;BME280;47692;53.714;11.372;2023-03-13T01:38:35;99621.25;;;4.27;100.00
61786;BME280;47692;53.714;11.372;2023-03-13T01:41:00;99618.72;;;4.24;100.00
61786;BME280;47692;53.714;11.372;2023-03-13T01:43:28;99617.00;;;4.23;100.00
61786;BME280;47692;53.714;11.372;2023-03-13T01:51:23;99596.28;;;4.26;100.00
61786;BME280;47692;53.714;11.372;2023-03-13T01:54:16;99588.53;;;4.26;100.00
61786;BME280;47692;53.714;11.372;2023-03-13T01:56:47;99587.69;;;4.24;100.00
61786;BME280;47692;53.714;11.372;2023-03-13T01:59:22;99579.06;;;4.28;100.00
61786;BME280;47692;53.714;11.372;2023-03-13T02:01:49;99571.31;;;4.25;100.00
61786;BME280;47692;53.714;11.372;2023-03-13T02:04:18;99565.25;;;4.27;100.00
61786;BME280;47692;53.714;11.372;2023-03-13T02:06:46;99564.44;;;4.24;100.00
61786;BME280;47692;53.714;11.372;2023-03-13T02:09:18;99562.75;;;4.24;100.00
61786;BME280;47692;53.714;11.372;2023-03-13T02:12:07;99554.97;;;4.26;100.00
61786;BME280;47692;53.714;11.372;2023-03-13T02:14:36;99548.94;;;4.24;100.00
61786;BME280;47692;53.714;11.372;2023-03-13T02:17:03;99545.41;;;4.31;100.00
61786;BME280;47692;53.714;11.372;2023-03-13T02:22:15;99536.78;;;4.32;100.00
61786;BME280;47692;53.714;11.372;2023-03-13T02:27:31;99538.41;;;4.36;100.00
61786;BME280;47692;53.714;11.372;2023-03-13T02:29:57;99530.66;;;4.36;100.00
61786;BME280;47692;53.714;11.372;2023-03-13T02:32:24;99522.03;;;4.37;100.00
61786;BME280;47692;53.714;11.372;2023-03-13T02:34:53;99522.88;;;4.37;100.00
61786;BME280;47692;53.714;11.372;2023-03-13T02:37:20;99527.25;;;4.35;100.00
61786;BME280;47692;53.714;11.372;2023-03-13T02:39:48;99515.06;;;4.42;100.00
61786;BME280;47692;53.714;11.372;2023-03-13T02:42:17;99508.13;;;4.44;100.00
61786;BME280;47692;53.714;11.372;2023-03-13T02:44:45;99512.44;;;4.45;100.00
61786;BME280;47692;53.714;11.372;2023-03-13T02:47:11;99502.91;;;4.47;100.00
61786;BME280;47692;53.714;11.372;2023-03-13T02:49:37;99501.16;;;4.49;100.00
61786;BME280;47692;53.714;11.372;2023-03-13T02:54:36;99483.91;;;4.50;100.00
61786;BME280;47692;53.714;11.372;2023-03-13T02:57:04;99487.41;;;4.47;100.00
61786;BME280;47692;53.714;11.372;2023-03-13T02:59:30;99481.41;;;4.45;100.00
61786;BME280;47692;53.714;11.372;2023-03-13T03:01:55;99471.09;;;4.45;100.00
61786;BME280;47692;53.714;11.372;2023-03-13T03:04:23;99465.88;;;4.47;100.00
61786;BME280;47692;53.714;11.372;2023-03-13T03:06:49;99463.25;;;4.48;100.00
61786;BME280;47692;53.714;11.372;2023-03-13T03:09:15;99456.38;;;4.47;100.00
61786;BME280;47692;53.714;11.372;2023-03-13T03:11:42;99455.44;;;4.53;100.00
61786;BME280;47692;53.714;11.372;2023-03-13T03:14:08;99458.09;;;4.48;100.00
61786;BME280;47692;53.714;11.372;2023-03-13T03:16:34;99453.78;;;4.47;100.00
61786;BME280;47692;53.714;11.372;2023-03-13T03:19:00;99447.81;;;4.45;100.00
61786;BME280;47692;53.714;11.372;2023-03-13T03:21:25;99442.66;;;4.45;100.00
61786;BME280;47692;53.714;11.372;2023-03-13T03:23:51;99443.50;;;4.46;100.00
61786;BME280;47692;53.714;11.372;2023-03-13T03:26:16;99443.44;;;4.49;100.00
61786;BME280;47692;53.714;11.372;2023-03-13T03:28:42;99429.72;;;4.45;100.00
61786;BME280;47692;53.714;11.372;2023-03-13T03:31:10;99426.19;;;4.49;100.00
61786;BME280;47692;53.714;11.372;2023-03-13T03:33:36;99424.41;;;4.53;100.00
61786;BME280;47692;53.714;11.372;2023-03-13T03:36:05;99413.31;;;4.48;100.00
61786;BME280;47692;53.714;11.372;2023-03-13T03:38:31;99404.66;;;4.50;100.00
61786;BME280;47692;53.714;11.372;2023-03-13T03:40:57;99411.53;;;4.51;100.00
61786;BME280;47692;53.714;11.372;2023-03-13T03:43:22;99405.47;;;4.51;100.00
61786;BME280;47692;53.714;11.372;2023-03-13T03:45:48;99410.53;;;4.57;100.00
61786;BME280;47692;53.714;11.372;2023-03-13T03:48:13;99404.53;;;4.57;100.00
61786;BME280;47692;53.714;11.372;2023-03-13T03:50:38;99397.56;;;4.59;100.00
61786;BME280;47692;53.714;11.372;2023-03-13T03:53:04;99390.72;;;4.58;100.00
61786;BME280;47692;53.714;11.372;2023-03-13T03:55:29;99388.06;;;4.61;100.00
61786;BME280;47692;53.714;11.372;2023-03-13T03:57:55;99382.94;;;4.59;100.00
61786;BME280;47692;53.714;11.372;2023-03-13T04:00:20;99384.59;;;4.62;100.00
61786;BME280;47692;53.714;11.372;2023-03-13T04:02:46;99385.44;;;4.64;100.00
61786;BME280;47692;53.714;11.372;2023-03-13T04:05:11;99377.72;;;4.61;100.00
61786;BME280;47692;53.714;11.372;2023-03-13T04:07:37;99356.94;;;4.67;100.00
61786;BME280;47692;53.714;11.372;2023-03-13T04:10:03;99360.34;;;4.69;100.00
61786;BME280;47692;53.714;11.372;2023-03-13T04:12:28;99349.13;;;4.70;100.00
61786;BME280;47692;53.714;11.372;2023-03-13T04:14:54;99340.56;;;4.66;100.00
61786;BME280;47692;53.714;11.372;2023-03-13T04:17:19;99331.94;;;4.66;100.00
61786;BME280;47692;53.714;11.372;2023-03-13T04:19:44;99327.66;;;4.65;100.00
61786;BME280;47692;53.714;11.372;2023-03-13T04:22:10;99325.91;;;4.67;100.00
61786;BME280;47692;53.714;11.372;2023-03-13T04:24:35;99320.81;;;4.62;100.00
61786;BME280;47692;53.714;11.372;2023-03-13T04:27:00;99323.41;;;4.62;100.00
61786;BME280;47692;53.714;11.372;2023-03-13T04:29:28;99311.41;;;4.60;100.00
61786;BME280;47692;53.714;11.372;2023-03-13T04:31:53;99307.94;;;4.61;100.00
61786;BME280;47692;53.714;11.372;2023-03-13T04:34:19;99293.28;;;4.60;100.00
61786;BME280;47692;53.714;11.372;2023-03-13T04:36:44;99295.88;;;4.60;100.00
61786;BME280;47692;53.714;11.372;2023-03-13T04:39:09;99281.19;;;4.62;100.00
61786;BME280;47692;53.714;11.372;2023-03-13T04:41:35;99267.44;;;4.61;100.00
61786;BME280;47692;53.714;11.372;2023-03-13T04:44:00;99277.69;;;4.64;100.00
61786;BME280;47692;53.714;11.372;2023-03-13T04:46:25;99268.22;;;4.63;100.00
61786;BME280;47692;53.714;11.372;2023-03-13T04:48:51;99251.75;;;4.69;100.00
61786;BME280;47692;53.714;11.372;2023-03-13T04:51:16;99259.47;;;4.71;100.00
61786;BME280;47692;53.714;11.372;2023-03-13T04:53:41;99243.13;;;4.70;100.00
61786;BME280;47692;53.714;11.372;2023-03-13T04:56:07;99236.97;;;4.74;100.00
61786;BME280;47692;53.714;11.372;2023-03-13T04:58:32;99238.69;;;4.75;100.00
61786;BME280;47692;53.714;11.372;2023-03-13T05:00:58;99225.81;;;4.74;100.00
61786;BME280;47692;53.714;11.372;2023-03-13T05:03:23;99216.16;;;4.80;100.00
61786;BME280;47692;53.714;11.372;2023-03-13T05:05:49;99205.72;;;4.83;100.00
61786;BME280;47692;53.714;11.372;2023-03-13T05:08:14;99199.78;;;4.80;100.00
61786;BME280;47692;53.714;11.372;2023-03-13T05:10:42;99187.63;;;4.83;100.00
61786;BME280;47692;53.714;11.372;2023-03-13T05:13:08;99181.50;;;4.88;100.00
61786;BME280;47692;53.714;11.372;2023-03-13T05:15:33;99182.44;;;4.85;100.00
61786;BME280;47692;53.714;11.372;2023-03-13T05:17:58;99166.06;;;4.84;100.00
61786;BME280;47692;53.714;11.372;2023-03-13T05:20:24;99162.59;;;4.85;100.00
61786;BME280;47692;53.714;11.372;2023-03-13T05:22:49;99155.56;;;4.91;100.00
61786;BME280;47692;53.714;11.372;2023-03-13T05:25:15;99155.53;;;4.92;100.00
61786;BME280;47692;53.714;11.372;2023-03-13T05:27:40;99150.34;;;4.94;100.00
61786;BME280;47692;53.714;11.372;2023-03-13T05:30:06;99145.22;;;4.91;100.00
61786;BME280;47692;53.714;11.372;2023-03-13T05:32:31;99134.88;;;4.91;100.00
61786;BME280;47692;53.714;11.372;2023-03-13T05:34:57;99124.63;;;4.88;100.00
61786;BME280;47692;53.714;11.372;2023-03-13T05:37:22;99124.53;;;4.91;100.00
61786;BME280;47692;53.714;11.372;2023-03-13T05:39:47;99112.47;;;4.90;100.00
61786;BME280;47692;53.714;11.372;2023-03-13T05:42:13;99108.03;;;4.96;100.00
61786;BME280;47692;53.714;11.372;2023-03-13T05:44:38;99101.19;;;4.94;100.00
61786;BME280;47692;53.714;11.372;2023-03-13T05:47:03;99092.56;;;4.95;100.00
61786;BME280;47692;53.714;11.372;2023-03-13T05:49:29;99098.50;;;4.97;100.00
61786;BME280;47692;53.714;11.372;2023-03-13T05:51:54;99071.72;;;4.99;100.00
61786;BME280;47692;53.714;11.372;2023-03-13T05:54:19;99077.66;;;5.03;100.00
61786;BME280;47692;53.714;11.372;2023-03-13T05:56:45;99064.78;;;5.01;100.00
61786;BME280;47692;53.714;11.372;2023-03-13T05:59:12;99068.19;;;5.04;100.00
61786;BME280;47692;53.714;11.372;2023-03-13T06:01:38;99061.13;;;5.09;100.00
61786;BME280;47692;53.714;11.372;2023-03-13T06:04:03;99061.97;;;5.09;100.00
61786;BME280;47692;53.714;11.372;2023-03-13T06:06:28;99060.09;;;5.14;100.00
61786;BME280;47692;53.714;11.372;2023-03-13T06:08:54;99058.34;;;5.16;100.00
61786;BME280;47692;53.714;11.372;2023-03-13T06:11:19;99053.97;;;5.18;100.00
61786;BME280;47692;53.714;11.372;2023-03-13T06:13:44;99028.81;;;5.24;100.00
61786;BME280;47692;53.714;11.372;2023-03-13T06:16:10;99042.53;;;5.26;100.00
61786;BME280;47692;53.714;11.372;2023-03-13T06:18:35;99034.75;;;5.27;100.00
61786;BME280;47692;53.714;11.372;2023-03-13T06:21:01;99021.72;;;5.30;100.00
61786;BME280;47692;53.714;11.372;2023-03-13T06:23:26;99027.72;;;5.32;100.00
61786;BME280;47692;53.714;11.372;2023-03-13T06:25:52;99031.84;;;5.38;100.00
61786;BME280;47692;53.714;11.372;2023-03-13T06:28:18;99030.97;;;5.39;100.00
61786;BME280;47692;53.714;11.372;2023-03-13T06:30:43;99032.53;;;5.45;100.00
61786;BME280;47692;53.714;11.372;2023-03-13T06:33:09;99024.66;;;5.49;100.00
61786;BME280;47692;53.714;11.372;2023-03-13T06:35:34;99002.13;;;5.52;100.00
61786;BME280;47692;53.714;11.372;2023-03-13T06:37:59;99005.59;;;5.52;100.00
61786;BME280;47692;53.714;11.372;2023-03-13T06:40:25;98998.66;;;5.53;100.00
61786;BME280;47692;53.714;11.372;2023-03-13T06:42:50;98995.09;;;5.57;100.00
61786;BME280;47692;53.714;11.372;2023-03-13T06:45:16;98979.53;;;5.57;100.00
61786;BME280;47692;53.714;11.372;2023-03-13T06:47:41;98974.19;;;5.63;100.00
61786;BME280;47692;53.714;11.372;2023-03-13T06:50:07;98965.53;;;5.64;100.00
61786;BME280;47692;53.714;11.372;2023-03-13T06:52:32;98965.44;;;5.67;100.00
61786;BME280;47692;53.714;11.372;2023-03-13T06:54:57;98964.44;;;5.71;100.00
61786;BME280;47692;53.714;11.372;2023-03-13T06:57:23;98961.75;;;5.74;100.00
61786;BME280;47692;53.714;11.372;2023-03-13T06:59:48;98953.09;;;5.75;100.00
61786;BME280;47692;53.714;11.372;2023-03-13T07:02:14;98935.84;;;5.74;100.00
61786;BME280;47692;53.714;11.372;2023-03-13T07:04:39;98943.59;;;5.76;100.00
61786;BME280;47692;53.714;11.372;2023-03-13T07:07:07;98937.56;;;5.75;100.00
61786;BME280;47692;53.714;11.372;2023-03-13T07:09:33;98946.03;;;5.80;100.00
61786;BME280;47692;53.714;11.372;2023-03-13T07:11:58;98930.41;;;5.83;100.00
61786;BME280;47692;53.714;11.372;2023-03-13T07:14:24;98884.53;;;5.87;100.00
61786;BME280;47692;53.714;11.372;2023-03-13T07:16:49;98927.56;;;5.91;100.00
61786;BME280;47692;53.714;11.372;2023-03-13T07:19:15;98931.00;;;5.92;100.00
61786;BME280;47692;53.714;11.372;2023-03-13T07:21:40;98906.75;;;5.94;100.00
61786;BME280;47692;53.714;11.372;2023-03-13T07:24:06;98928.13;;;6.01;100.00
61786;BME280;47692;53.714;11.372;2023-03-13T07:26:31;98897.88;;;6.03;100.00
61786;BME280;47692;53.714;11.372;2023-03-13T07:28:57;98889.97;;;6.06;100.00
61786;BME280;47692;53.714;11.372;2023-03-13T07:31:22;98905.44;;;6.09;100.00
61786;BME280;47692;53.714;11.372;2023-03-13T07:33:52;98896.66;;;6.13;100.00
61786;BME280;47692;53.714;11.372;2023-03-13T07:36:20;98890.25;;;6.24;100.00
61786;BME280;47692;53.714;11.372;2023-03-13T07:38:47;98881.63;;;6.23;100.00
61786;BME280;47692;53.714;11.372;2023-03-13T07:41:13;98870.53;;;6.20;100.00
61786;BME280;47692;53.714;11.372;2023-03-13T07:43:38;98879.25;;;6.17;100.00
61786;BME280;47692;53.714;11.372;2023-03-13T07:46:05;98872.22;;;6.21;100.00
61786;BME280;47692;53.714;11.372;2023-03-13T07:48:36;98875.59;;;6.23;100.00
61786;BME280;47692;53.714;11.372;2023-03-13T07:51:03;98875.56;;;6.24;100.00
61786;BME280;47692;53.714;11.372;2023-03-13T07:53:28;98877.28;;;6.24;100.00
61786;BME280;47692;53.714;11.372;2023-03-13T07:58:21;98848.28;;;6.38;100.00
61786;BME280;47692;53.714;11.372;2023-03-13T08:00:46;98842.72;;;6.49;100.00
61786;BME280;47692;53.714;11.372;2023-03-13T08:03:12;98834.00;;;6.51;100.00
61786;BME280;47692;53.714;11.372;2023-03-13T08:05:37;98836.34;;;6.59;100.00
61786;BME280;47692;53.714;11.372;2023-03-13T08:08:03;98840.56;;;6.61;100.00
61786;BME280;47692;53.714;11.372;2023-03-13T08:10:29;98824.81;;;6.66;100.00
61786;BME280;47692;53.714;11.372;2023-03-13T08:12:54;98834.19;;;6.70;100.00
61786;BME280;47692;53.714;11.372;2023-03-13T08:15:20;98829.72;;;6.74;100.00
61786;BME280;47692;53.714;11.372;2023-03-13T08:17:49;98818.50;;;6.73;100.00
61786;BME280;47692;53.714;11.372;2023-03-13T08:20:15;98809.81;;;6.74;100.00
61786;BME280;47692;53.714;11.372;2023-03-13T08:22:41;98817.59;;;6.74;100.00
61786;BME280;47692;53.714;11.372;2023-03-13T08:25:07;98823.69;;;6.73;100.00
61786;BME280;47692;53.714;11.372;2023-03-13T08:27:32;98813.31;;;6.73;100.00
61786;BME280;47692;53.714;11.372;2023-03-13T08:29:57;98806.44;;;6.72;100.00
61786;BME280;47692;53.714;11.372;2023-03-13T08:32:23;98799.50;;;6.73;100.00
61786;BME280;47692;53.714;11.372;2023-03-13T08:34:48;98798.47;;;6.77;100.00
61786;BME280;47692;53.714;11.372;2023-03-13T08:37:14;98782.91;;;6.77;100.00
61786;BME280;47692;53.714;11.372;2023-03-13T08:39:40;98802.59;;;6.83;100.00
61786;BME280;47692;53.714;11.372;2023-03-13T08:42:07;98783.41;;;6.87;100.00
61786;BME280;47692;53.714;11.372;2023-03-13T08:44:32;98792.75;;;6.91;100.00
61786;BME280;47692;53.714;11.372;2023-03-13T08:46:57;98790.06;;;6.94;100.00
61786;BME280;47692;53.714;11.372;2023-03-13T08:49:24;98786.56;;;6.95;100.00
61786;BME280;47692;53.714;11.372;2023-03-13T08:51:49;98786.34;;;7.01;100.00
61786;BME280;47692;53.714;11.372;2023-03-13T08:54:14;98770.63;;;7.04;100.00
61786;BME280;47692;53.714;11.372;2023-03-13T08:56:40;98771.28;;;7.09;100.00
61786;BME280;47692;53.714;11.372;2023-03-13T08:59:07;98774.44;;;7.18;100.00
61786;BME280;47692;53.714;11.372;2023-03-13T09:01:34;98768.19;;;7.22;100.00
61786;BME280;47692;53.714;11.372;2023-03-13T09:04:00;98767.38;;;7.21;100.00
61786;BME280;47692;53.714;11.372;2023-03-13T09:06:25;98760.31;;;7.25;100.00
61786;BME280;47692;53.714;11.372;2023-03-13T09:08:51;98748.88;;;7.29;100.00
61786;BME280;47692;53.714;11.372;2023-03-13T09:11:19;98732.41;;;7.30;100.00
61786;BME280;47692;53.714;11.372;2023-03-13T09:13:48;98739.94;;;7.36;100.00
61786;BME280;47692;53.714;11.372;2023-03-13T09:16:19;98749.28;;;7.40;100.00
61786;BME280;47692;53.714;11.372;2023-03-13T09:18:45;98751.81;;;7.42;100.00
61786;BME280;47692;53.714;11.372;2023-03-13T09:21:16;98743.13;;;7.43;100.00
61786;BME280;47692;53.714;11.372;2023-03-13T09:23:42;98744.81;;;7.44;100.00
61786;BME280;47692;53.714;11.372;2023-03-13T09:26:07;98733.13;;;7.54;100.00
61786;BME280;47692;53.714;11.372;2023-03-13T09:28:34;98731.16;;;7.59;100.00
61786;BME280;47692;53.714;11.372;2023-03-13T09:31:07;98725.78;;;7.64;100.00
61786;BME280;47692;53.714;11.372;2023-03-13T09:33:33;98712.69;;;7.67;100.00
61786;BME280;47692;53.714;11.372;2023-03-13T09:35:58;98720.22;;;7.73;100.00
61786;BME280;47692;53.714;11.372;2023-03-13T09:38:23;98710.28;;;7.83;100.00
61786;BME280;47692;53.714;11.372;2023-03-13T09:40:51;98716.81;;;7.92;100.00
61786;BME280;47692;53.714;11.372;2023-03-13T09:43:24;98704.47;;;7.97;100.00
61786;BME280;47692;53.714;11.372;2023-03-13T09:45:58;98705.88;;;8.04;100.00
61786;BME280;47692;53.714;11.372;2023-03-13T09:48:32;98723.72;;;8.12;100.00
61786;BME280;47692;53.714;11.372;2023-03-13T09:51:00;98697.47;;;8.18;100.00
61786;BME280;47692;53.714;11.372;2023-03-13T09:53:37;98704.00;;;8.27;100.00
61786;BME280;47692;53.714;11.372;2023-03-13T09:56:12;98706.31;;;8.33;100.00
61786;BME280;47692;53.714;11.372;2023-03-13T09:58:53;98687.06;;;8.37;100.00
61786;BME280;47692;53.714;11.372;2023-03-13T10:01:25;98695.34;;;8.46;100.00
61786;BME280;47692;53.714;11.372;2023-03-13T10:04:04;98698.63;;;8.51;100.00
61786;BME280;47692;53.714;11.372;2023-03-13T10:06:34;98697.25;;;8.61;100.00
61786;BME280;47692;53.714;11.372;2023-03-13T10:09:04;98707.47;;;8.66;100.00
61786;BME280;47692;53.714;11.372;2023-03-13T10:11:40;98691.41;;;8.75;100.00
61786;BME280;47692;53.714;11.372;2023-03-13T10:14:26;98700.69;;;8.81;100.00
61786;BME280;47692;53.714;11.372;2023-03-13T10:19:59;98703.91;;;8.86;100.00
61786;BME280;47692;53.714;11.372;2023-03-13T10:22:27;98699.31;;;8.91;100.00
61786;BME280;47692;53.714;11.372;2023-03-13T10:27:20;98689.22;;;9.02;100.00
61786;BME280;47692;53.714;11.372;2023-03-13T10:29:45;98689.19;;;9.04;100.00
61786;BME280;47692;53.714;11.372;2023-03-13T10:32:14;98689.56;;;9.14;100.00
61786;BME280;47692;53.714;11.372;2023-03-13T10:37:20;98682.06;;;9.25;100.00
61786;BME280;47692;53.714;11.372;2023-03-13T10:39:45;98688.03;;;9.27;100.00
61786;BME280;47692;53.714;11.372;2023-03-13T10:42:20;98686.97;;;9.31;100.00
61786;BME280;47692;53.714;11.372;2023-03-13T10:44:45;98688.56;;;9.34;100.00
61786;BME280;47692;53.714;11.372;2023-03-13T10:47:13;98691.69;;;9.41;100.00
61786;BME280;47692;53.714;11.372;2023-03-13T10:49:49;98697.59;;;9.44;100.00
61786;BME280;47692;53.714;11.372;2023-03-13T10:52:41;98705.34;;;9.46;100.00
61786;BME280;47692;53.714;11.372;2023-03-13T10:55:11;98705.81;;;9.54;100.00
61786;BME280;47692;53.714;11.372;2023-03-13T10:57:37;98701.97;;;9.61;100.00
61786;BME280;47692;53.714;11.372;2023-03-13T11:02:52;98695.13;;;9.76;100.00
61786;BME280;47692;53.714;11.372;2023-03-13T11:05:39;98703.53;;;9.81;100.00
61786;BME280;47692;53.714;11.372;2023-03-13T11:08:27;98702.03;;;9.93;100.00
61786;BME280;47692;53.714;11.372;2023-03-13T11:11:03;98682.41;;;10.03;100.00
61786;BME280;47692;53.714;11.372;2023-03-13T11:15:57;98683.44;;;10.17;100.00
61786;BME280;47692;53.714;11.372;2023-03-13T11:18:34;98685.09;;;10.18;100.00
61786;BME280;47692;53.714;11.372;2023-03-13T11:21:02;98691.59;;;10.27;100.00
61786;BME280;47692;53.714;11.372;2023-03-13T11:23:34;98691.06;;;10.38;100.00
61786;BME280;47692;53.714;11.372;2023-03-13T11:28:43;98688.59;;;10.66;100.00
61786;BME280;47692;53.714;11.372;2023-03-13T11:31:27;98685.38;;;10.93;100.00
61786;BME280;47692;53.714;11.372;2023-03-13T11:34:02;98681.00;;;11.24;100.00
61786;BME280;47692;53.714;11.372;2023-03-13T11:36:38;98695.63;;;11.43;100.00
61786;BME280;47692;53.714;11.372;2023-03-13T11:39:36;98685.72;;;11.48;100.00
61786;BME280;47692;53.714;11.372;2023-03-13T11:47:28;98687.91;;;11.70;100.00
61786;BME280;47692;53.714;11.372;2023-03-13T11:55:17;98684.28;;;11.87;100.00
61786;BME280;47692;53.714;11.372;2023-03-13T11:58:01;98670.09;;;11.91;100.00
61786;BME280;47692;53.714;11.372;2023-03-13T12:00:32;98671.78;;;11.92;100.00
61786;BME280;47692;53.714;11.372;2023-03-13T12:05:52;98681.91;;;11.99;100.00
61786;BME280;47692;53.714;11.372;2023-03-13T12:08:22;98681.31;;;12.22;100.00
61786;BME280;47692;53.714;11.372;2023-03-13T12:11:15;98667.75;;;12.30;100.00
61786;BME280;47692;53.714;11.372;2023-03-13T12:13:50;98672.75;;;12.62;100.00
61786;BME280;47692;53.714;11.372;2023-03-13T12:16:20;98654.44;;;12.75;100.00
61786;BME280;47692;53.714;11.372;2023-03-13T12:18:48;98658.72;;;12.90;100.00
61786;BME280;47692;53.714;11.372;2023-03-13T12:21:29;98651.78;;;12.89;100.00
61786;BME280;47692;53.714;11.372;2023-03-13T12:24:21;98652.72;;;12.88;100.00
61786;BME280;47692;53.714;11.372;2023-03-13T12:26:55;98637.31;;;12.97;100.00
61786;BME280;47692;53.714;11.372;2023-03-13T12:37:54;98624.09;;;12.85;100.00
61786;BME280;47692;53.714;11.372;2023-03-13T12:40:37;98621.34;;;12.74;100.00
61786;BME280;47692;53.714;11.372;2023-03-13T12:43:13;98630.75;;;12.64;100.00
61786;BME280;47692;53.714;11.372;2023-03-13T12:46:32;98640.84;;;12.55;100.00
61786;BME280;47692;53.714;11.372;2023-03-13T12:49:10;98637.91;;;12.47;100.00
61786;BME280;47692;53.714;11.372;2023-03-13T12:51:48;98640.72;;;12.44;100.00
61786;BME280;47692;53.714;11.372;2023-03-13T12:54:50;98622.75;;;12.52;100.00
61786;BME280;47692;53.714;11.372;2023-03-13T13:00:26;98618.09;;;13.11;100.00
61786;BME280;47692;53.714;11.372;2023-03-13T13:06:12;98613.91;;;13.34;98.54
61786;BME280;47692;53.714;11.372;2023-03-13T13:13:57;98595.91;;;13.42;96.47
61786;BME280;47692;53.714;11.372;2023-03-13T13:16:24;98594.25;;;13.41;95.84
61786;BME280;47692;53.714;11.372;2023-03-13T13:18:51;98599.06;;;13.47;95.52
61786;BME280;47692;53.714;11.372;2023-03-13T13:23:45;98586.53;;;13.89;92.03
61786;BME280;47692;53.714;11.372;2023-03-13T13:37:00;98574.66;;;13.97;87.89
61786;BME280;47692;53.714;11.372;2023-03-13T13:39:37;98562.41;;;14.21;85.26
61786;BME280;47692;53.714;11.372;2023-03-13T13:45:00;98561.53;;;14.34;82.24
61786;BME280;47692;53.714;11.372;2023-03-13T13:47:27;98562.19;;;14.25;81.33
61786;BME280;47692;53.714;11.372;2023-03-13T13:49:55;98569.28;;;14.11;81.71
61786;BME280;47692;53.714;11.372;2023-03-13T13:52:36;98560.34;;;14.14;83.23
61786;BME280;47692;53.714;11.372;2023-03-13T13:57:51;98566.03;;;14.32;81.16
61786;BME280;47692;53.714;11.372;2023-03-13T14:00:28;98555.72;;;14.17;81.31
61786;BME280;47692;53.714;11.372;2023-03-13T14:02:58;98559.22;;;14.05;82.56
61786;BME280;47692;53.714;11.372;2023-03-13T14:05:26;98542.31;;;14.09;80.57
61786;BME280;47692;53.714;11.372;2023-03-13T14:12:56;98547.41;;;14.72;77.39
61786;BME280;47692;53.714;11.372;2023-03-13T14:15:23;98544.63;;;14.49;78.00
61786;BME280;47692;53.714;11.372;2023-03-13T14:17:52;98549.06;;;14.25;80.07
61786;BME280;47692;53.714;11.372;2023-03-13T14:20:35;98548.06;;;14.14;82.83
61786;BME280;47692;53.714;11.372;2023-03-13T14:23:01;98542.84;;;14.26;83.16
61786;BME280;47692;53.714;11.372;2023-03-13T14:25:40;98537.50;;;14.51;79.61